Time;durP1;ratioP1;P1;durP2;ratioP2;P2;SDS_P1;SDS_P2;PMS_P1;PMS_P2;Temp;Humidity;BMP_temperature;BMP_pressure;BME280_temperature;BME280_humidity;BME280_pressure;Samples;Min_cycle;Max_cycle;Signal;HPM_P1;HPM_P2
2022/10/29 00:01:48;;;;;;;41.67;15.73;;;21.60;64.60;;;;;;5058294;28;20414;-81
2022/10/29 00:04:14;;;;;;;36.58;15.50;;;21.50;64.60;;;;;;5074184;28;20023;-79
2022/10/29 00:06:40;;;;;;;34.22;14.50;;;21.60;64.50;;;;;;5075912;28;20078;-81
2022/10/29 00:09:06;;;;;;;40.22;15.70;;;21.50;64.80;;;;;;5075519;28;20031;-79
2022/10/29 00:11:33;;;;;;;33.88;14.18;;;21.60;64.60;;;;;;5075407;28;20400;-80
2022/10/29 00:14:00;;;;;;;43.30;16.25;;;21.70;64.30;;;;;;5057936;28;20017;-81
2022/10/29 00:16:28;;;;;;;32.33;14.55;;;21.70;64.40;;;;;;5056925;28;20017;-81
2022/10/29 00:18:54;;;;;;;33.10;14.32;;;21.70;64.30;;;;;;5075091;28;20016;-79
2022/10/29 00:21:22;;;;;;;29.65;13.68;;;21.00;66.00;;;;;;5056561;28;20016;-80
2022/10/29 00:23:49;;;;;;;36.78;14.95;;;20.40;67.40;;;;;;5074817;28;20429;-82
2022/10/29 00:26:16;;;;;;;41.17;15.63;;;20.30;68.60;;;;;;5057631;28;20033;-81
2022/10/29 00:28:50;;;;;;;31.15;13.52;;;20.60;67.60;;;;;;5074424;28;20421;-81
2022/10/29 00:31:23;;;;;;;35.45;14.25;;;20.90;66.40;;;;;;5056914;28;20024;-81
2022/10/29 00:33:49;;;;;;;45.08;16.48;;;20.90;66.90;;;;;;5074741;28;20076;-80
2022/10/29 00:36:27;;;;;;;45.88;16.33;;;21.20;66.10;;;;;;5075104;28;20095;-80
2022/10/29 00:38:53;;;;;;;38.85;15.05;;;21.50;65.50;;;;;;5074962;28;20032;-80
2022/10/29 00:41:22;;;;;;;47.97;16.33;;;21.70;64.80;;;;;;5073286;28;20023;-81
2022/10/29 00:44:11;;;;;;;34.80;15.57;;;21.80;64.30;;;;;;5056591;28;20474;-82
2022/10/29 00:46:37;;;;;;;36.63;13.77;;;21.80;64.50;;;;;;5056668;28;20123;-80
2022/10/29 00:49:02;;;;;;;42.45;16.40;;;21.80;64.30;;;;;;5056637;28;20496;-82
2022/10/29 00:51:30;;;;;;;41.65;16.55;;;21.90;64.20;;;;;;5072967;28;20069;-81
2022/10/29 00:54:05;;;;;;;40.75;16.67;;;22.00;64.10;;;;;;5073026;28;20017;-81
2022/10/29 00:56:35;;;;;;;46.30;17.38;;;22.00;63.90;;;;;;5056374;28;20086;-82
2022/10/29 00:59:01;;;;;;;40.28;17.25;;;22.00;63.80;;;;;;5074292;28;20040;-80
2022/10/29 01:01:27;;;;;;;41.22;18.55;;;21.80;64.30;;;;;;5056386;28;20481;-81
2022/10/29 01:03:54;;;;;;;50.15;18.75;;;20.90;66.40;;;;;;5074317;28;20019;-81
2022/10/29 01:06:21;;;;;;;43.10;19.20;;;20.00;69.50;;;;;;5055941;28;20040;-80
2022/10/29 01:08:46;;;;;;;48.05;19.73;;;19.50;70.80;;;;;;5055554;28;20024;-79
2022/10/29 01:11:27;;;;;;;42.40;19.00;;;19.40;72.10;;;;;;5073425;28;20024;-80
2022/10/29 01:13:59;;;;;;;40.85;18.88;;;19.30;72.00;;;;;;5056197;28;20040;-80
2022/10/29 01:16:43;;;;;;;51.15;19.60;;;19.60;71.70;;;;;;5056086;28;20020;-81
2022/10/29 01:19:39;;;;;;;48.13;19.58;;;20.20;70.20;;;;;;5057449;28;20056;-81
2022/10/29 01:22:20;;;;;;;56.58;21.75;;;20.80;68.20;;;;;;5056094;28;20036;-80
2022/10/29 01:25:09;;;;;;;49.70;19.70;;;21.10;67.20;;;;;;5074491;28;20020;-80
2022/10/29 01:27:35;;;;;;;52.10;19.98;;;21.40;66.30;;;;;;5074347;28;20055;-81
2022/10/29 01:30:07;;;;;;;46.60;20.05;;;21.50;65.90;;;;;;5074240;28;20364;-82
2022/10/29 01:32:48;;;;;;;39.60;18.58;;;21.60;65.60;;;;;;5073523;28;20052;-79
2022/10/29 01:35:38;;;;;;;42.30;18.90;;;21.60;65.40;;;;;;5074094;28;20024;-79
2022/10/29 01:38:39;;;;;;;49.38;19.90;;;21.40;66.30;;;;;;5011930;28;20093;-81
2022/10/29 01:41:36;;;;;;;51.38;20.85;;;21.40;66.20;;;;;;4995765;28;20533;-80
2022/10/29 01:44:10;;;;;;;35.97;16.50;;;21.40;66.50;;;;;;4995944;28;20080;-81
2022/10/29 01:46:48;;;;;;;46.08;19.23;;;21.10;66.40;;;;;;4995620;28;20033;-80
2022/10/29 01:49:19;;;;;;;41.15;17.45;;;20.80;67.40;;;;;;4994669;28;20038;-80
2022/10/29 01:51:47;;;;;;;31.30;16.23;;;21.00;66.90;;;;;;4995035;28;20034;-80
2022/10/29 01:54:13;;;;;;;37.33;17.48;;;21.20;66.40;;;;;;4995300;28;20022;-79
2022/10/29 01:56:38;;;;;;;42.45;19.08;;;20.80;68.20;;;;;;4995083;28;20076;-81
2022/10/29 01:59:09;;;;;;;35.88;17.98;;;20.80;67.50;;;;;;4995311;28;20413;-78
2022/10/29 02:01:55;;;;;;;27.15;15.52;;;21.00;67.20;;;;;;4994847;28;20057;-79
2022/10/29 02:04:32;;;;;;;29.65;15.57;;;20.60;67.80;;;;;;4994496;28;20025;-79
2022/10/29 02:07:27;;;;;;;24.08;14.27;;;20.20;69.20;;;;;;4994538;28;20033;-78
2022/10/29 02:10:09;;;;;;;22.80;13.15;;;20.00;68.90;;;;;;4996246;28;20595;-80
2022/10/29 02:12:50;;;;;;;24.65;13.95;;;20.00;69.60;;;;;;5010841;28;20034;-81
2022/10/29 02:15:21;;;;;;;25.65;13.93;;;19.80;69.80;;;;;;5044459;28;20021;-81
2022/10/29 02:17:47;;;;;;;26.77;14.38;;;19.70;70.60;;;;;;5055367;28;20160;-80
2022/10/29 02:20:14;;;;;;;22.25;13.52;;;20.00;69.60;;;;;;5054377;28;20474;-78
2022/10/29 02:22:40;;;;;;;28.90;15.50;;;20.10;69.00;;;;;;5073207;28;20514;-80
2022/10/29 02:25:07;;;;;;;37.35;31.95;;;20.40;68.80;;;;;;5054621;28;20021;-80
2022/10/29 02:27:33;;;;;;;29.45;18.60;;;20.80;67.20;;;;;;5054762;28;20099;-80
2022/10/29 02:29:59;;;;;;;25.48;15.63;;;21.10;66.10;;;;;;5055169;28;20016;-79
2022/10/29 02:32:24;;;;;;;30.90;17.25;;;21.30;65.80;;;;;;5072761;28;20398;-81
2022/10/29 02:34:50;;;;;;;35.42;17.80;;;21.50;65.70;;;;;;5072873;28;20025;-83
2022/10/29 02:37:16;;;;;;;35.92;18.80;;;21.50;65.20;;;;;;5073226;28;20044;-80
2022/10/29 02:39:41;;;;;;;31.10;17.33;;;21.60;65.10;;;;;;5070773;28;20028;-82
2022/10/29 02:42:07;;;;;;;25.27;14.95;;;21.70;64.70;;;;;;5054713;28;20020;-80
2022/10/29 02:44:32;;;;;;;26.20;15.55;;;21.10;65.80;;;;;;5071488;28;20013;-81
2022/10/29 02:46:58;;;;;;;27.27;15.57;;;20.40;67.70;;;;;;5072171;28;20490;-79
2022/10/29 02:49:24;;;;;;;34.53;18.38;;;20.10;69.40;;;;;;5070803;28;20036;-80
2022/10/29 02:51:49;;;;;;;33.38;18.25;;;20.40;68.80;;;;;;5054722;28;20020;-79
2022/10/29 02:54:15;;;;;;;40.10;20.13;;;20.80;67.50;;;;;;5054761;28;20056;-80
2022/10/29 02:56:41;;;;;;;36.47;19.83;;;21.10;66.30;;;;;;5054143;28;20390;-80
2022/10/29 02:59:06;;;;;;;40.28;20.13;;;21.50;65.80;;;;;;5054992;28;20028;-80
2022/10/29 03:01:32;;;;;;;38.60;19.55;;;21.60;65.10;;;;;;5072921;28;20028;-81
2022/10/29 03:03:58;;;;;;;30.15;17.85;;;21.80;64.70;;;;;;5071343;28;20027;-80
2022/10/29 03:06:25;;;;;;;30.45;17.17;;;21.80;64.40;;;;;;5072043;28;20119;-81
2022/10/29 03:08:51;;;;;;;30.58;16.92;;;21.70;64.50;;;;;;5072694;28;20029;-79
2022/10/29 03:11:16;;;;;;;40.38;19.33;;;21.10;66.20;;;;;;5071930;28;20024;-79
2022/10/29 03:13:42;;;;;;;34.30;18.98;;;21.20;66.00;;;;;;5054580;28;20028;-80
2022/10/29 03:16:08;;;;;;;33.63;18.80;;;21.50;65.10;;;;;;5055302;28;20026;-80
2022/10/29 03:18:34;;;;;;;30.30;17.63;;;21.70;64.90;;;;;;5054527;28;20024;-81
2022/10/29 03:20:59;;;;;;;31.13;17.27;;;21.80;64.50;;;;;;5054829;28;20471;-81
2022/10/29 03:23:25;;;;;;;40.10;19.90;;;21.80;64.10;;;;;;5071420;28;20033;-81
2022/10/29 03:25:55;;;;;;;25.30;15.77;;;21.80;64.30;;;;;;5072506;28;20341;-80
2022/10/29 03:28:22;;;;;;;26.25;15.65;;;21.70;64.00;;;;;;5054533;28;20024;-81
2022/10/29 03:30:48;;;;;;;28.77;17.45;;;21.20;65.70;;;;;;5054418;28;20028;-81
2022/10/29 03:33:13;;;;;;;31.02;17.02;;;21.10;65.70;;;;;;5072552;28;20070;-80
2022/10/29 03:35:39;;;;;;;34.50;18.52;;;21.30;65.50;;;;;;5070944;28;20033;-81
2022/10/29 03:38:05;;;;;;;30.52;17.88;;;21.60;64.50;;;;;;5054117;28;20099;-81
2022/10/29 03:40:31;;;;;;;36.45;19.20;;;21.80;64.10;;;;;;5054697;28;20039;-81
2022/10/29 03:42:57;;;;;;;26.30;15.75;;;21.90;63.90;;;;;;5053830;28;20150;-81
2022/10/29 03:45:22;;;;;;;24.95;15.43;;;21.80;64.30;;;;;;5072596;28;20025;-81
2022/10/29 03:47:48;;;;;;;26.83;16.45;;;21.30;65.10;;;;;;5072454;28;20039;-81
2022/10/29 03:50:14;;;;;;;28.23;17.05;;;20.90;66.60;;;;;;5072727;28;20041;-81
2022/10/29 03:52:39;;;;;;;28.05;16.58;;;21.10;65.80;;;;;;5057301;28;20031;-82
2022/10/29 03:55:05;;;;;;;30.98;17.63;;;21.20;65.60;;;;;;5076360;28;20075;-81
2022/10/29 03:57:31;;;;;;;35.95;19.10;;;21.30;65.60;;;;;;5058354;28;20025;-81
2022/10/29 03:59:57;;;;;;;31.10;17.05;;;21.50;64.90;;;;;;5076304;28;20092;-82
2022/10/29 04:02:23;;;;;;;23.67;14.73;;;21.60;64.70;;;;;;5075861;28;20054;-81
2022/10/29 04:04:49;;;;;;;32.22;17.80;;;21.50;64.90;;;;;;5057714;28;20074;-80
2022/10/29 04:07:15;;;;;;;32.38;17.95;;;21.30;65.70;;;;;;5075966;28;20044;-81
2022/10/29 04:09:41;;;;;;;33.20;18.20;;;21.50;65.20;;;;;;5076045;28;20029;-81
2022/10/29 04:12:07;;;;;;;34.20;18.77;;;21.70;64.30;;;;;;5058169;28;20048;-79
2022/10/29 04:14:33;;;;;;;32.42;17.75;;;21.80;64.10;;;;;;5057886;28;20082;-81
2022/10/29 04:16:58;;;;;;;30.33;17.58;;;21.80;64.60;;;;;;5075366;28;20052;-80
2022/10/29 04:19:24;;;;;;;31.70;17.50;;;21.90;64.30;;;;;;5057969;28;20741;-82
2022/10/29 04:21:50;;;;;;;30.92;17.83;;;21.90;63.90;;;;;;5075799;28;20032;-81
2022/10/29 04:24:15;;;;;;;31.10;17.63;;;22.00;63.50;;;;;;5075886;28;20024;-81
2022/10/29 04:26:42;;;;;;;33.78;18.27;;;22.10;63.40;;;;;;5057706;28;20028;-81
2022/10/29 04:29:08;;;;;;;30.50;17.38;;;22.10;63.50;;;;;;5075881;28;20397;-81
2022/10/29 04:31:34;;;;;;;31.67;17.45;;;22.10;63.60;;;;;;5057982;28;20025;-81
2022/10/29 04:33:59;;;;;;;29.92;17.90;;;22.00;63.80;;;;;;5058003;28;20352;-81
2022/10/29 04:36:25;;;;;;;35.63;19.88;;;22.00;63.50;;;;;;5057302;28;20032;-81
2022/10/29 04:38:51;;;;;;;29.38;18.10;;;22.10;63.40;;;;;;5074186;28;20367;-82
2022/10/29 04:41:16;;;;;;;38.53;19.80;;;22.00;63.80;;;;;;5074917;28;20519;-81
2022/10/29 04:43:42;;;;;;;31.55;18.85;;;21.90;63.80;;;;;;5074264;28;20447;-82
2022/10/29 04:46:09;;;;;;;34.35;19.13;;;22.00;63.50;;;;;;5057289;28;20017;-81
2022/10/29 04:48:35;;;;;;;35.90;20.10;;;21.90;63.80;;;;;;5075065;28;20110;-82
2022/10/29 04:51:01;;;;;;;38.15;20.20;;;21.80;64.10;;;;;;5075140;28;20017;-81
2022/10/29 04:53:27;;;;;;;36.83;20.60;;;21.80;64.20;;;;;;5057332;28;20074;-80
2022/10/29 04:55:59;;;;;;;39.95;20.67;;;21.70;64.40;;;;;;5074736;28;20012;-81
2022/10/29 04:58:25;;;;;;;39.22;19.90;;;21.70;64.30;;;;;;5075205;28;20062;-82
2022/10/29 05:00:51;;;;;;;34.22;19.15;;;21.70;64.30;;;;;;5057154;28;20017;-81
2022/10/29 05:03:16;;;;;;;41.92;21.52;;;21.90;64.10;;;;;;5056102;28;20027;-81
2022/10/29 05:05:42;;;;;;;34.92;19.40;;;21.90;63.80;;;;;;5074856;28;20017;-81
2022/10/29 05:08:10;;;;;;;34.08;18.83;;;21.90;63.70;;;;;;5074558;28;20032;-81
2022/10/29 05:10:37;;;;;;;36.92;20.23;;;21.90;63.70;;;;;;5056069;28;20418;-80
2022/10/29 05:13:06;;;;;;;33.72;19.77;;;21.90;63.80;;;;;;5056237;28;20031;-80
2022/10/29 05:15:32;;;;;;;34.40;19.58;;;21.90;63.80;;;;;;5074068;28;20020;-81
2022/10/29 05:17:58;;;;;;;25.70;16.52;;;21.90;63.70;;;;;;5072593;28;20027;-80
2022/10/29 05:20:24;;;;;;;24.25;15.65;;;21.40;64.20;;;;;;5073803;28;20359;-82
2022/10/29 05:22:56;;;;;;;27.30;15.85;;;20.10;67.30;;;;;;5074259;28;20035;-80
2022/10/29 05:25:22;;;;;;;34.15;17.50;;;19.60;69.90;;;;;;5055719;28;20013;-79
2022/10/29 05:27:48;;;;;;;31.10;16.58;;;20.10;68.80;;;;;;5073917;28;20043;-81
2022/10/29 05:30:13;;;;;;;28.38;16.60;;;20.50;67.30;;;;;;5074185;28;20017;-81
2022/10/29 05:32:39;;;;;;;26.85;16.85;;;21.00;66.20;;;;;;5056035;28;20024;-82
2022/10/29 05:35:05;;;;;;;28.08;16.70;;;21.30;65.30;;;;;;5074175;28;20016;-81
2022/10/29 05:37:30;;;;;;;27.35;16.77;;;21.30;65.20;;;;;;5074340;28;20060;-80
2022/10/29 05:39:56;;;;;;;28.67;16.25;;;21.40;64.80;;;;;;5055912;28;20115;-80
2022/10/29 05:42:22;;;;;;;33.08;17.27;;;21.60;64.70;;;;;;5073370;28;20060;-81
2022/10/29 05:44:47;;;;;;;29.08;16.25;;;21.50;64.90;;;;;;5055752;28;20040;-81
2022/10/29 05:47:13;;;;;;;30.45;16.60;;;21.60;64.50;;;;;;5073945;28;20028;-82
2022/10/29 05:49:38;;;;;;;24.02;15.88;;;21.70;64.20;;;;;;5073014;28;20040;-81
2022/10/29 05:52:04;;;;;;;31.13;18.20;;;21.80;64.20;;;;;;5056170;28;20024;-80
2022/10/29 05:54:30;;;;;;;28.45;16.10;;;21.90;63.80;;;;;;4701817;28;9999755;-81
2022/10/29 05:56:57;;;;;;;26.05;15.88;;;21.90;63.80;;;;;;5051484;28;20021;-82
2022/10/29 05:59:23;;;;;;;27.45;15.35;;;21.80;63.90;;;;;;5052349;28;20025;-82
2022/10/29 06:01:49;;;;;;;25.75;15.90;;;21.90;63.90;;;;;;5053502;28;20484;-82
2022/10/29 06:04:14;;;;;;;26.63;14.95;;;21.80;63.80;;;;;;5052196;28;20032;-80
2022/10/29 06:06:40;;;;;;;23.65;14.40;;;21.60;64.10;;;;;;5051341;28;20032;-80
2022/10/29 06:09:06;;;;;;;27.02;15.50;;;21.60;64.10;;;;;;5051334;28;20020;-80
2022/10/29 06:11:32;;;;;;;27.55;15.50;;;20.90;66.20;;;;;;5051862;28;20055;-81
2022/10/29 06:13:57;;;;;;;27.58;16.10;;;20.90;66.20;;;;;;5051222;28;20055;-81
2022/10/29 06:16:23;;;;;;;31.38;16.17;;;21.10;65.90;;;;;;5051782;28;20364;-81
2022/10/29 06:18:49;;;;;;;31.58;18.20;;;21.40;65.20;;;;;;5052263;28;20021;-82
2022/10/29 06:21:14;;;;;;;34.58;21.17;;;21.50;64.90;;;;;;5050510;28;20017;-80
2022/10/29 06:23:40;;;;;;;30.77;18.23;;;21.70;64.70;;;;;;5051440;28;20094;-82
2022/10/29 06:26:05;;;;;;;32.22;16.75;;;21.80;64.60;;;;;;5050904;28;20112;-82
2022/10/29 06:28:31;;;;;;;28.23;16.52;;;21.70;65.10;;;;;;5051545;28;20402;-82
2022/10/29 06:30:57;;;;;;;27.27;15.38;;;21.40;65.70;;;;;;5052605;28;20028;-81
2022/10/29 06:33:23;;;;;;;27.85;15.65;;;21.30;65.70;;;;;;5051803;28;20029;-81
2022/10/29 06:35:48;;;;;;;33.55;18.23;;;20.90;66.20;;;;;;5051381;28;20784;-81
2022/10/29 06:38:14;;;;;;;35.15;18.15;;;21.00;66.30;;;;;;5051067;28;20722;-82
2022/10/29 06:40:41;;;;;;;30.73;17.73;;;21.20;65.90;;;;;;5052545;28;20219;-81
2022/10/29 06:43:09;;;;;;;29.23;16.77;;;21.40;65.20;;;;;;5051216;28;20695;-83
2022/10/29 06:45:35;;;;;;;56.40;33.15;;;21.40;65.40;;;;;;5051430;28;20495;-80
2022/10/29 06:48:03;;;;;;;34.03;20.92;;;21.60;65.20;;;;;;5051415;28;20543;-83
2022/10/29 06:50:29;;;;;;;31.35;16.92;;;21.60;65.20;;;;;;5051817;28;20027;-87
2022/10/29 06:53:00;;;;;;;33.88;17.48;;;21.60;65.20;;;;;;5052072;28;20028;-81
2022/10/29 06:55:27;;;;;;;32.42;16.60;;;21.70;65.00;;;;;;5062361;28;20131;-80
2022/10/29 06:58:00;;;;;;;40.22;19.13;;;21.80;64.70;;;;;;5071345;28;20100;-82
2022/10/29 07:00:27;;;;;;;32.85;16.52;;;21.90;64.70;;;;;;5072005;28;20074;-83
2022/10/29 07:02:53;;;;;;;33.42;17.92;;;22.00;64.30;;;;;;5072434;28;20024;-81
2022/10/29 07:05:19;;;;;;;30.92;16.73;;;22.10;64.20;;;;;;5069617;28;20021;-80
2022/10/29 07:07:45;;;;;;;28.25;16.42;;;22.20;64.20;;;;;;5070386;28;20058;-80
2022/10/29 07:10:10;;;;;;;37.03;18.63;;;22.20;63.80;;;;;;5072246;28;20379;-82
2022/10/29 07:12:40;;;;;;;31.27;16.42;;;22.20;63.90;;;;;;5072923;28;20025;-81
2022/10/29 07:15:06;;;;;;;31.43;17.77;;;22.20;63.70;;;;;;5069033;28;20027;-79
2022/10/29 07:17:32;;;;;;;29.58;17.70;;;21.50;64.60;;;;;;5069358;28;20261;-78
2022/10/29 07:19:57;;;;;;;34.28;18.00;;;21.00;66.50;;;;;;5071469;28;20027;-80
2022/10/29 07:22:23;;;;;;;35.45;17.90;;;21.10;66.10;;;;;;5087102;28;20055;-82
2022/10/29 07:24:49;;;;;;;39.97;20.17;;;20.80;66.80;;;;;;5070750;28;20060;-81
2022/10/29 07:27:14;;;;;;;33.45;17.83;;;20.50;68.20;;;;;;5073609;28;20060;-82
2022/10/29 07:29:40;;;;;;;33.17;17.38;;;20.50;67.70;;;;;;5075249;28;20017;-81
2022/10/29 07:32:06;;;;;;;34.55;17.77;;;20.40;68.50;;;;;;5090310;28;20081;-80
2022/10/29 07:34:31;;;;;;;35.83;18.33;;;20.60;68.70;;;;;;5090726;28;20057;-81
2022/10/29 07:36:57;;;;;;;37.78;18.75;;;20.80;67.60;;;;;;5075740;28;20017;-81
2022/10/29 07:39:23;;;;;;;45.58;19.55;;;21.00;67.00;;;;;;5091050;28;20500;-80
2022/10/29 07:41:49;;;;;;;42.05;19.60;;;21.20;66.70;;;;;;5073465;28;20029;-81
2022/10/29 07:44:14;;;;;;;41.53;20.55;;;21.50;66.10;;;;;;5073417;28;20486;-80
2022/10/29 07:46:40;;;;;;;41.60;19.63;;;21.90;65.00;;;;;;5074259;28;20032;-81
2022/10/29 07:49:06;;;;;;;38.58;19.50;;;21.90;64.40;;;;;;5090072;28;20057;-80
2022/10/29 07:51:31;;;;;;;42.65;20.17;;;22.10;63.80;;;;;;5073271;28;20062;-81
2022/10/29 07:53:57;;;;;;;42.60;19.85;;;22.10;64.00;;;;;;5089429;28;20028;-81
2022/10/29 07:56:23;;;;;;;34.85;17.85;;;22.20;63.60;;;;;;5074643;28;20499;-80
2022/10/29 07:58:48;;;;;;;31.40;16.38;;;22.20;62.80;;;;;;5056362;28;20036;-81
2022/10/29 08:01:14;;;;;;;31.67;16.08;;;21.40;64.70;;;;;;5056348;28;20019;-81
2022/10/29 08:03:39;;;;;;;29.48;16.20;;;20.80;66.10;;;;;;5072389;28;20026;-80
2022/10/29 08:06:05;;;;;;;37.05;19.02;;;20.40;67.50;;;;;;5072527;28;20086;-81
2022/10/29 08:08:33;;;;;;;32.92;18.25;;;20.50;67.90;;;;;;5073428;28;20047;-81
2022/10/29 08:11:03;;;;;;;36.40;18.38;;;20.90;67.10;;;;;;5072920;28;20035;-80
2022/10/29 08:13:29;;;;;;;41.42;20.35;;;21.40;65.90;;;;;;5056519;28;20056;-80
2022/10/29 08:15:55;;;;;;;32.05;18.17;;;21.70;65.60;;;;;;5073873;28;20025;-80
2022/10/29 08:18:21;;;;;;;29.98;17.33;;;21.80;65.20;;;;;;5072178;28;20016;-80
2022/10/29 08:20:47;;;;;;;30.17;16.05;;;22.10;64.50;;;;;;5053412;28;20106;-78
2022/10/29 08:23:13;;;;;;;27.75;15.70;;;22.40;63.90;;;;;;5064740;28;20120;-81
2022/10/29 08:25:42;;;;;;;24.17;14.48;;;22.70;63.40;;;;;;5070270;28;20025;-79
2022/10/29 08:28:10;;;;;;;27.92;14.82;;;22.80;62.70;;;;;;5053364;28;20538;-79
2022/10/29 08:30:37;;;;;;;27.98;14.63;;;22.40;63.40;;;;;;5061587;28;20441;-81
2022/10/29 08:33:03;;;;;;;30.23;16.40;;;22.10;63.80;;;;;;5068108;28;20031;-79
2022/10/29 08:35:30;;;;;;;33.25;16.85;;;22.10;64.10;;;;;;5052501;28;20021;-82
2022/10/29 08:37:56;;;;;;;33.50;16.73;;;22.30;63.30;;;;;;5054077;28;20020;-80
2022/10/29 08:40:57;;;;;;;30.70;16.60;;;22.30;63.10;;;;;;5071233;28;21466;-82
2022/10/29 08:43:55;;;;;;;35.65;17.52;;;22.50;62.70;;;;;;5070886;28;20042;-80
2022/10/29 08:46:32;;;;;;;31.42;17.73;;;22.70;62.90;;;;;;5072308;28;20102;-81
2022/10/29 08:49:03;;;;;;;37.17;18.33;;;22.70;62.60;;;;;;5064940;28;20099;-81
2022/10/29 08:51:41;;;;;;;35.03;17.42;;;22.70;62.40;;;;;;5047703;28;20103;-80
2022/10/29 08:54:13;;;;;;;28.67;16.70;;;22.70;62.30;;;;;;5052466;28;20012;-83
2022/10/29 08:56:49;;;;;;;35.55;18.20;;;22.60;62.30;;;;;;5049457;28;20546;-81
2022/10/29 08:59:21;;;;;;;30.05;16.67;;;22.60;62.40;;;;;;5054556;28;20115;-80
2022/10/29 09:01:47;;;;;;;31.92;16.67;;;22.60;62.70;;;;;;5054907;28;20410;-82
2022/10/29 09:04:22;;;;;;;33.78;17.35;;;22.60;62.70;;;;;;5072050;28;20020;-80
2022/10/29 09:07:06;;;;;;;30.17;17.52;;;22.60;62.40;;;;;;5053110;28;20479;-81
2022/10/29 09:09:58;;;;;;;27.42;15.40;;;22.70;62.20;;;;;;5069316;28;20039;-81
2022/10/29 09:12:46;;;;;;;30.48;16.00;;;22.70;62.20;;;;;;4990612;28;20230;-81
2022/10/29 09:15:37;;;;;;;27.45;15.30;;;22.70;62.30;;;;;;4965444;28;20187;-84
2022/10/29 09:18:36;;;;;;;36.65;20.85;;;22.60;62.50;;;;;;4974634;28;20030;-80
2022/10/29 09:21:23;;;;;;;42.92;22.42;;;22.40;62.60;;;;;;4976770;28;20165;-81
2022/10/29 09:24:02;;;;;;;54.13;25.75;;;22.30;63.20;;;;;;4978183;28;20059;-81
2022/10/29 09:26:46;;;;;;;51.03;25.63;;;22.30;63.20;;;;;;4992473;28;20350;-81
2022/10/29 09:29:25;;;;;;;45.75;23.85;;;22.50;63.00;;;;;;4992588;28;20097;-81
2022/10/29 09:31:58;;;;;;;53.25;26.02;;;22.50;63.10;;;;;;4990992;28;20150;-82
2022/10/29 09:34:38;;;;;;;42.55;22.20;;;22.70;62.90;;;;;;4991914;28;20030;-80
2022/10/29 09:37:12;;;;;;;;;;;22.50;63.50;;;;;;4973297;28;20037;-81
2022/10/29 09:39:41;;;;;;;46.83;23.27;;;21.90;64.10;;;;;;4991730;28;19906;-81
2022/10/29 09:42:45;;;;;;;39.03;20.15;;;22.10;64.10;;;;;;4991692;28;20034;-81
2022/10/29 09:45:16;;;;;;;45.85;24.13;;;22.00;63.40;;;;;;4991756;28;20034;-82
2022/10/29 09:48:06;;;;;;;43.38;22.20;;;21.90;64.40;;;;;;4986780;28;20039;-81
2022/10/29 09:51:03;;;;;;;43.65;24.00;;;22.30;63.90;;;;;;5048024;28;20033;-80
2022/10/29 09:53:28;;;;;;;41.63;22.30;;;22.60;63.20;;;;;;5034717;28;20049;-79
2022/10/29 09:55:54;;;;;;;48.10;24.10;;;22.60;63.20;;;;;;5071374;28;20043;-80
2022/10/29 09:58:23;;;;;;;50.05;26.80;;;22.30;63.60;;;;;;5054729;28;20056;-81
2022/10/29 10:00:53;;;;;;;41.03;22.90;;;22.30;63.80;;;;;;5061575;28;20368;-81
2022/10/29 10:03:29;;;;;;;50.17;25.55;;;22.00;64.40;;;;;;5068182;28;20016;-79
2022/10/29 10:06:09;;;;;;;43.53;24.75;;;21.40;65.80;;;;;;5072826;28;20082;-83
2022/10/29 10:08:57;;;;;;;48.72;26.95;;;21.50;66.10;;;;;;5047128;28;20033;-79
2022/10/29 10:11:26;;;;;;;45.97;25.00;;;21.60;64.90;;;;;;5069816;28;20533;-79
2022/10/29 10:13:56;;;;;;;51.90;27.52;;;21.30;65.80;;;;;;5074917;28;20032;-80
2022/10/29 10:16:25;;;;;;;59.35;30.63;;;21.10;66.70;;;;;;5072517;28;20044;-81
2022/10/29 10:26:42;;;;;;;54.10;28.17;;;22.20;64.20;;;;;;4772756;23;10001669;-82
2022/10/29 10:29:14;;;;;;;52.85;27.75;;;22.50;63.80;;;;;;5008340;28;20033;-79
2022/10/29 10:31:45;;;;;;;57.75;29.48;;;22.60;63.90;;;;;;5033064;28;20021;-86
2022/10/29 10:34:23;;;;;;;55.88;30.33;;;22.70;63.10;;;;;;5023865;28;20557;-84
2022/10/29 10:36:55;;;;;;;51.25;26.88;;;22.50;63.20;;;;;;5033431;28;20036;-86
2022/10/29 10:39:39;;;;;;;56.45;27.92;;;22.30;64.00;;;;;;5034825;28;20039;-86
2022/10/29 10:42:19;;;;;;;53.22;27.77;;;22.30;63.60;;;;;;5035034;28;20064;-83
2022/10/29 10:44:58;;;;;;;53.25;29.52;;;22.30;63.30;;;;;;5046169;28;20025;-83
2022/10/29 10:47:28;;;;;;;52.92;28.30;;;21.40;65.60;;;;;;5027797;28;20131;-85
2022/10/29 10:50:09;;;;;;;47.92;25.73;;;21.50;65.50;;;;;;5032036;28;20061;-84
2022/10/29 10:52:35;;;;;;;61.45;29.20;;;21.90;64.40;;;;;;4669747;28;10000176;-83
2022/10/29 10:55:31;;;;;;;51.72;27.10;;;21.70;65.00;;;;;;5049957;28;20029;-85
2022/10/29 10:58:14;;;;;;;50.40;26.60;;;21.30;65.30;;;;;;5009385;28;20029;-81
2022/10/29 11:00:45;;;;;;;52.30;28.00;;;20.90;66.30;;;;;;5034332;28;20049;-84
2022/10/29 11:03:16;;;;;;;54.00;28.48;;;20.40;68.40;;;;;;5032313;28;20025;-82
2022/10/29 11:06:04;;;;;;;53.72;28.67;;;20.10;69.40;;;;;;5033330;28;20032;-83
2022/10/29 11:08:44;;;;;;;54.60;37.15;;;20.20;69.00;;;;;;5037312;28;20499;-81
2022/10/29 11:11:20;;;;;;;50.78;27.02;;;20.40;68.80;;;;;;5009051;28;20477;-82
2022/10/29 11:13:48;;;;;;;54.03;28.75;;;20.40;68.50;;;;;;5038435;28;20126;-85
2022/10/29 11:16:37;;;;;;;52.40;28.95;;;20.50;68.40;;;;;;5041253;28;20028;-83
2022/10/29 11:19:25;;;;;;;50.05;26.80;;;20.50;68.20;;;;;;5034980;28;20033;-81
2022/10/29 11:22:02;;;;;;;51.03;28.33;;;20.80;67.20;;;;;;5035186;28;20042;-85
2022/10/29 11:24:37;;;;;;;45.40;27.02;;;20.70;68.00;;;;;;5020021;28;20063;-85
2022/10/29 11:27:32;;;;;;;52.05;26.35;;;21.00;66.80;;;;;;5015335;28;20056;-82
2022/10/29 11:30:11;;;;;;;51.85;26.55;;;20.80;66.70;;;;;;5021862;28;20033;-81
2022/10/29 11:33:05;;;;;;;50.83;27.83;;;20.30;68.20;;;;;;4680485;28;10000237;-82
2022/10/29 11:35:57;;;;;;;51.83;28.38;;;20.50;68.30;;;;;;4953764;28;20121;-79
2022/10/29 11:38:38;;;;;;;52.00;27.60;;;20.60;68.10;;;;;;4973641;28;20371;-81
2022/10/29 11:41:15;;;;;;;55.03;30.30;;;20.60;68.00;;;;;;4968588;28;20053;-82
2022/10/29 11:43:40;;;;;;;52.75;28.15;;;20.50;68.50;;;;;;4940370;29;20094;-82
2022/10/29 11:46:14;;;;;;;48.42;27.45;;;20.80;67.30;;;;;;4956844;28;20133;-81
2022/10/29 11:49:10;;;;;;;57.58;30.35;;;21.00;66.50;;;;;;4975043;28;20046;-81
2022/10/29 11:51:55;;;;;;;51.63;28.95;;;20.60;67.60;;;;;;4959178;28;20094;-82
2022/10/29 11:54:34;;;;;;;46.95;27.98;;;20.30;68.20;;;;;;4957866;28;20054;-83
2022/10/29 11:57:18;;;;;;;58.47;32.60;;;20.30;68.80;;;;;;4958337;28;20137;-84
2022/10/29 12:00:15;;;;;;;53.03;28.98;;;20.60;68.70;;;;;;4974841;28;20070;-84
2022/10/29 12:02:46;;;;;;;52.53;29.10;;;20.80;67.60;;;;;;4976186;28;20023;-84
2022/10/29 12:05:25;;;;;;;51.42;28.00;;;21.00;67.70;;;;;;4974569;28;20113;-82
2022/10/29 12:08:37;;;;;;;53.53;28.52;;;20.90;67.60;;;;;;4974472;28;20513;-80
2022/10/29 12:11:19;;;;;;;50.03;28.05;;;20.60;68.00;;;;;;4936412;29;20522;-83
2022/10/29 12:14:18;;;;;;;49.35;27.50;;;20.40;68.50;;;;;;4974327;28;20045;-83
2022/10/29 12:16:56;;;;;;;47.75;28.13;;;20.60;68.30;;;;;;4993225;28;20038;-82
2022/10/29 12:19:49;;;;;;;47.38;26.58;;;20.80;67.90;;;;;;4960401;28;20019;-81
2022/10/29 12:22:27;;;;;;;42.55;25.00;;;20.90;67.20;;;;;;4979582;28;20048;-80
2022/10/29 12:24:58;;;;;;;46.63;26.92;;;21.00;67.10;;;;;;4986226;28;20118;-82
2022/10/29 12:27:37;;;;;;;48.65;27.08;;;20.90;67.00;;;;;;4992715;28;20065;-82
2022/10/29 12:30:05;;;;;;;47.30;26.58;;;20.70;67.90;;;;;;4992912;28;20042;-80
2022/10/29 12:32:36;;;;;;;48.60;26.65;;;20.80;68.10;;;;;;4992636;28;20037;-81
2022/10/29 12:35:22;;;;;;;47.63;27.05;;;20.80;67.50;;;;;;4991753;28;20038;-80
2022/10/29 12:37:50;;;;;;;53.92;27.85;;;21.30;66.50;;;;;;4986108;28;20045;-81
2022/10/29 12:40:25;;;;;;;48.67;27.75;;;21.60;66.00;;;;;;4976692;28;20813;-78
2022/10/29 12:42:52;;;;;;;49.22;27.42;;;21.70;65.80;;;;;;4989908;28;20077;-79
2022/10/29 12:45:49;;;;;;;51.03;26.55;;;21.30;66.30;;;;;;4990879;28;20388;-83
2022/10/29 12:48:33;;;;;;;53.92;29.73;;;21.20;66.90;;;;;;5005514;28;20056;-85
2022/10/29 12:51:21;;;;;;;59.33;31.08;;;21.50;67.00;;;;;;4998677;28;20648;-84
2022/10/29 12:54:08;;;;;;;45.05;25.65;;;21.90;65.30;;;;;;5014976;28;20071;-81
2022/10/29 12:56:34;;;;;;;43.20;25.55;;;21.90;64.80;;;;;;4679231;28;10000556;-82